createdAt,value
2018-08-12T00:00:07.950Z,97.80
2018-08-12T00:02:36.301Z,97.70
2018-08-12T00:05:05.413Z,97.70
2018-08-12T00:07:33.692Z,97.70
2018-08-12T00:10:01.965Z,97.70
2018-08-12T00:12:30.394Z,97.70
2018-08-12T00:14:58.646Z,97.60
2018-08-12T00:17:26.928Z,97.70
2018-08-12T00:19:55.177Z,97.70
2018-08-12T00:22:23.500Z,97.70
2018-08-12T00:24:51.809Z,97.70
2018-08-12T00:27:20.206Z,97.70
2018-08-12T00:29:48.484Z,97.70
2018-08-12T00:32:16.862Z,97.60
2018-08-12T00:34:45.108Z,97.90
2018-08-12T00:37:13.396Z,97.50
2018-08-12T00:39:41.691Z,97.40
2018-08-12T00:42:10.021Z,97.30
2018-08-12T00:44:38.254Z,97.30
2018-08-12T00:47:06.520Z,97.30
2018-08-12T00:49:34.796Z,97.30
2018-08-12T00:52:03.632Z,97.20
2018-08-12T00:54:31.897Z,97.20
2018-08-12T00:57:00.176Z,97.40
2018-08-12T00:59:28.569Z,97.30
2018-08-12T01:01:56.846Z,97.30
2018-08-12T01:04:25.109Z,97.40
2018-08-12T01:06:53.448Z,97.40
2018-08-12T01:09:21.732Z,97.40
2018-08-12T01:11:50.073Z,97.60
2018-08-12T01:14:18.368Z,97.40
2018-08-12T01:16:46.697Z,97.40
2018-08-12T01:19:15.001Z,97.40
2018-08-12T01:21:43.273Z,97.40
2018-08-12T01:24:11.666Z,97.40
2018-08-12T01:26:39.976Z,97.40
2018-08-12T01:29:08.296Z,97.40
2018-08-12T01:31:36.575Z,97.40
2018-08-12T01:34:05.093Z,97.40
2018-08-12T01:36:33.385Z,97.50
2018-08-12T01:39:01.698Z,97.50
2018-08-12T01:41:30.043Z,97.50
2018-08-12T01:43:58.320Z,97.50
2018-08-12T01:46:26.601Z,97.50
2018-08-12T01:48:54.915Z,97.40
2018-08-12T01:51:23.244Z,97.40
2018-08-12T01:53:51.537Z,97.30
2018-08-12T01:56:19.866Z,97.30
2018-08-12T01:58:48.141Z,97.20
2018-08-12T02:01:16.417Z,97.20
2018-08-12T02:03:44.654Z,97.20
2018-08-12T02:06:12.908Z,97.10
2018-08-12T02:08:41.192Z,97.10
2018-08-12T02:11:09.595Z,97.20
2018-08-12T02:13:37.976Z,97.20
2018-08-12T02:16:06.334Z,97.20
2018-08-12T02:18:34.712Z,97.20
2018-08-12T02:21:03.072Z,97.30
2018-08-12T02:23:31.512Z,97.30
2018-08-12T02:25:59.868Z,97.30
2018-08-12T02:28:32.568Z,97.30
2018-08-12T02:31:01.053Z,97.30
2018-08-12T02:33:29.413Z,97.30
2018-08-12T02:35:57.812Z,97.20
2018-08-12T02:38:26.168Z,97.10
2018-08-12T02:40:54.569Z,97.10
2018-08-12T02:43:22.912Z,97.20
2018-08-12T02:45:51.319Z,97.20
2018-08-12T02:48:19.704Z,97.10
2018-08-12T02:50:48.108Z,97.20
2018-08-12T02:53:16.465Z,97.10
2018-08-12T02:55:49.813Z,97.20
2018-08-12T02:58:18.309Z,97.20
2018-08-12T03:00:46.620Z,97.20
2018-08-12T03:03:14.990Z,97.10
2018-08-12T03:05:43.645Z,97.00
2018-08-12T03:08:12.293Z,97.00
2018-08-12T03:10:40.882Z,97.00
2018-08-12T03:13:09.235Z,97.10
2018-08-12T03:15:37.624Z,97.10
2018-08-12T03:18:06.112Z,97.10
2018-08-12T03:20:34.550Z,97.10
2018-08-12T03:23:02.952Z,97.10
2018-08-12T03:25:31.360Z,97.10
2018-08-12T03:27:59.739Z,97.10
2018-08-12T03:30:28.097Z,97.10
2018-08-12T03:32:56.501Z,97.10
2018-08-12T03:35:24.879Z,97.00
2018-08-12T03:37:53.332Z,97.00
2018-08-12T03:40:21.643Z,97.00
2018-08-12T03:42:49.996Z,97.00
2018-08-12T03:45:18.456Z,97.00
2018-08-12T03:47:46.875Z,97.10
2018-08-12T03:50:15.236Z,97.00
2018-08-12T03:52:43.632Z,97.00
2018-08-12T03:55:12.059Z,96.90
2018-08-12T03:57:40.444Z,96.90
2018-08-12T04:00:13.308Z,96.90
2018-08-12T04:02:41.708Z,97.00
2018-08-12T04:05:10.052Z,97.00
2018-08-12T04:07:38.421Z,97.00
2018-08-12T04:10:07.460Z,97.00
2018-08-12T04:12:36.041Z,97.10
2018-08-12T04:15:05.524Z,97.10
2018-08-12T04:17:33.909Z,97.10
2018-08-12T04:20:02.353Z,97.10
2018-08-12T04:22:30.699Z,97.10
2018-08-12T04:24:59.419Z,97.10
2018-08-12T04:27:27.805Z,97.10
2018-08-12T04:29:56.248Z,97.10
2018-08-12T04:32:24.679Z,97.10
2018-08-12T04:34:53.036Z,97.10
2018-08-12T04:37:21.521Z,97.10
2018-08-12T04:39:49.880Z,97.00
2018-08-12T04:42:18.259Z,97.00
2018-08-12T04:44:46.652Z,97.10
2018-08-12T04:47:15.033Z,97.20
2018-08-12T04:49:43.332Z,97.10
2018-08-12T04:52:11.700Z,97.10
2018-08-12T04:54:40.041Z,97.10
2018-08-12T04:57:08.392Z,97.20
2018-08-12T04:59:36.768Z,97.10
2018-08-12T05:02:05.279Z,97.20
2018-08-12T05:04:33.684Z,97.20
2018-08-12T05:07:02.100Z,97.30
2018-08-12T05:09:30.467Z,97.30
2018-08-12T05:11:58.821Z,97.30
2018-08-12T05:14:27.208Z,97.30
2018-08-12T05:16:55.592Z,97.30
2018-08-12T05:19:23.908Z,97.30
2018-08-12T05:21:52.268Z,97.40
2018-08-12T05:24:20.642Z,97.40
2018-08-12T05:26:49.000Z,97.40
2018-08-12T05:29:17.392Z,97.40
2018-08-12T05:31:45.787Z,97.50
2018-08-12T05:34:14.145Z,97.50
2018-08-12T05:36:42.529Z,97.50
2018-08-12T05:39:12.972Z,97.50
2018-08-12T05:41:41.520Z,97.50
2018-08-12T05:44:09.895Z,97.50
2018-08-12T05:46:38.220Z,97.50
2018-08-12T05:49:06.656Z,97.50
2018-08-12T05:51:35.091Z,97.60
2018-08-12T05:54:03.456Z,97.60
2018-08-12T05:56:31.779Z,97.60
2018-08-12T05:59:00.096Z,97.60
2018-08-12T06:01:28.444Z,97.70
2018-08-12T06:03:57.109Z,97.80
2018-08-12T06:06:25.483Z,97.80
2018-08-12T06:08:53.915Z,97.90
2018-08-12T06:11:22.244Z,97.90
2018-08-12T06:13:50.623Z,97.90
2018-08-12T06:16:18.980Z,97.90
2018-08-12T06:18:47.443Z,97.80
2018-08-12T06:21:15.808Z,97.80
2018-08-12T06:23:44.101Z,97.80
2018-08-12T06:26:12.464Z,97.70
2018-08-12T06:28:40.816Z,97.60
2018-08-12T06:31:09.177Z,97.50
2018-08-12T06:33:37.500Z,97.40
2018-08-12T06:36:06.084Z,97.00
2018-08-12T06:38:34.565Z,96.90
2018-08-12T06:41:02.952Z,96.80
2018-08-12T06:43:31.424Z,96.70
2018-08-12T06:45:59.828Z,96.60
2018-08-12T06:48:29.408Z,96.40
2018-08-12T06:50:57.760Z,96.10
2018-08-12T06:53:26.192Z,95.70
2018-08-12T06:55:54.550Z,95.00
2018-08-12T06:58:22.937Z,94.90
2018-08-12T07:00:51.699Z,95.00
2018-08-12T07:03:20.089Z,94.80
2018-08-12T07:05:48.465Z,94.20
2018-08-12T07:10:50.660Z,93.90
2018-08-12T07:13:19.029Z,93.60
2018-08-12T07:15:47.440Z,93.50
2018-08-12T07:18:15.812Z,93.50
2018-08-12T07:20:44.188Z,93.10
2018-08-12T07:23:12.513Z,92.70
2018-08-12T07:25:40.884Z,92.30
2018-08-12T07:28:09.213Z,91.80
2018-08-12T07:30:37.739Z,91.20
2018-08-12T07:33:06.129Z,90.80
2018-08-12T07:35:34.424Z,90.70
2018-08-12T07:38:02.788Z,90.40
2018-08-12T07:40:31.212Z,90.40
2018-08-12T07:42:59.554Z,90.20
2018-08-12T07:45:27.928Z,89.80
2018-08-12T07:47:56.296Z,88.60
2018-08-12T07:50:24.701Z,87.60
2018-08-12T07:52:53.080Z,86.90
2018-08-12T07:55:21.461Z,86.30
2018-08-12T07:57:49.860Z,85.70
2018-08-12T08:00:19.471Z,84.80
2018-08-12T08:02:48.116Z,82.90
2018-08-12T08:05:16.556Z,82.50
2018-08-12T08:07:44.922Z,82.00
2018-08-12T08:10:15.010Z,81.30
2018-08-12T08:12:43.425Z,80.50
2018-08-12T08:15:16.408Z,79.80
2018-08-12T08:17:44.960Z,78.40
2018-08-12T08:20:14.348Z,78.10
2018-08-12T08:22:42.943Z,77.90
2018-08-12T08:25:11.969Z,76.60
2018-08-12T08:27:40.702Z,76.10
2018-08-12T08:30:11.252Z,74.70
2018-08-12T08:32:39.964Z,74.70
2018-08-12T08:35:08.499Z,73.70
2018-08-12T08:37:36.878Z,73.80
2018-08-12T08:40:08.386Z,74.30
2018-08-12T08:42:36.880Z,73.60
2018-08-12T08:45:08.626Z,74.30
2018-08-12T08:47:37.019Z,73.80
2018-08-12T08:50:06.106Z,73.30
2018-08-12T08:52:34.544Z,73.20
2018-08-12T08:55:03.033Z,72.40
2018-08-12T08:57:31.345Z,72.00
2018-08-12T08:59:59.714Z,71.20
2018-08-12T09:02:28.384Z,70.90
2018-08-12T09:04:56.785Z,70.30
2018-08-12T09:07:25.109Z,70.20
2018-08-12T09:09:53.450Z,69.90
2018-08-12T09:12:21.820Z,68.90
2018-08-12T09:14:50.199Z,69.00
2018-08-12T09:17:18.645Z,69.10
2018-08-12T09:19:47.009Z,69.40
2018-08-12T09:22:15.433Z,67.40
2018-08-12T09:24:43.788Z,67.50
2018-08-12T09:27:12.139Z,67.20
2018-08-12T09:29:40.465Z,65.90
2018-08-12T09:32:08.821Z,65.90
2018-08-12T09:34:37.259Z,65.70
2018-08-12T09:37:05.708Z,65.40
2018-08-12T09:39:34.098Z,64.90
2018-08-12T09:42:02.442Z,64.60
2018-08-12T09:44:30.743Z,63.40
2018-08-12T09:46:59.217Z,61.30
2018-08-12T09:49:27.598Z,60.00
2018-08-12T09:51:56.075Z,58.80
2018-08-12T09:54:24.440Z,57.20
2018-08-12T09:56:52.818Z,56.10
2018-08-12T09:59:21.189Z,55.20
2018-08-12T10:01:49.610Z,54.50
2018-08-12T10:04:17.980Z,54.60
2018-08-12T10:06:46.301Z,53.40
2018-08-12T10:09:14.674Z,53.50
2018-08-12T10:11:43.060Z,53.40
2018-08-12T10:14:11.488Z,53.30
2018-08-12T10:16:39.890Z,52.80
2018-08-12T10:19:08.405Z,52.40
2018-08-12T10:21:36.919Z,52.40
2018-08-12T10:24:05.332Z,52.20
2018-08-12T10:26:33.769Z,51.60
2018-08-12T10:29:02.136Z,50.30
2018-08-12T10:31:30.531Z,49.40
2018-08-12T10:33:58.885Z,49.60
2018-08-12T10:36:27.284Z,50.40
2018-08-12T10:38:56.052Z,50.60
2018-08-12T10:41:24.445Z,51.60
2018-08-12T10:43:52.782Z,51.30
2018-08-12T10:46:21.157Z,51.80
2018-08-12T10:48:49.562Z,51.60
2018-08-12T10:51:17.916Z,51.20
2018-08-12T10:53:46.329Z,50.90
2018-08-12T10:56:14.732Z,51.10
2018-08-12T10:58:43.196Z,50.90
2018-08-12T11:01:11.585Z,51.50
2018-08-12T11:03:40.041Z,51.80
2018-08-12T11:06:08.473Z,52.20
2018-08-12T11:08:36.918Z,52.60
2018-08-12T11:11:05.384Z,52.10
2018-08-12T11:13:33.740Z,52.70
2018-08-12T11:16:02.140Z,52.60
2018-08-12T11:18:30.472Z,52.30
2018-08-12T11:20:58.841Z,52.80
2018-08-12T11:23:27.192Z,52.90
2018-08-12T11:25:55.556Z,53.00
2018-08-12T11:28:23.978Z,53.10
2018-08-12T11:30:52.393Z,53.80
2018-08-12T11:33:20.776Z,54.30
2018-08-12T11:35:49.176Z,54.50
2018-08-12T11:38:17.603Z,54.50
2018-08-12T11:40:45.983Z,54.40
2018-08-12T11:43:14.376Z,55.00
2018-08-12T11:45:42.696Z,55.00
2018-08-12T11:48:11.069Z,55.00
2018-08-12T11:50:39.416Z,54.90
2018-08-12T11:53:07.810Z,55.00
2018-08-12T11:55:36.221Z,55.00
2018-08-12T11:58:05.005Z,54.80
2018-08-12T12:00:33.432Z,55.50
2018-08-12T12:03:01.824Z,55.80
2018-08-12T12:05:30.191Z,56.10
2018-08-12T12:07:58.669Z,56.30
2018-08-12T12:10:27.048Z,55.80
2018-08-12T12:12:55.427Z,55.60
2018-08-12T12:15:23.810Z,55.50
2018-08-12T12:17:52.236Z,55.60
2018-08-12T12:20:20.915Z,55.50
2018-08-12T12:22:49.361Z,55.00
2018-08-12T12:25:19.217Z,55.80
2018-08-12T12:27:47.598Z,56.10
2018-08-12T12:30:18.480Z,56.50
2018-08-12T12:32:47.592Z,56.30
2018-08-12T12:35:15.944Z,56.80
2018-08-12T12:37:44.344Z,55.90
2018-08-12T12:40:14.791Z,55.70
2018-08-12T12:42:43.481Z,55.80
2018-08-12T12:45:12.872Z,55.50
2018-08-12T12:47:41.683Z,55.50
2018-08-12T12:50:12.516Z,55.10
2018-08-12T12:52:41.090Z,55.10
2018-08-12T12:55:09.540Z,55.20
2018-08-12T12:57:37.933Z,56.30
2018-08-12T13:00:08.469Z,55.60
2018-08-12T13:02:36.934Z,56.20
2018-08-12T13:05:07.356Z,56.50
2018-08-12T13:07:35.733Z,55.70
2018-08-12T13:10:04.828Z,56.20
2018-08-12T13:12:33.244Z,56.20
2018-08-12T13:15:01.464Z,55.90
2018-08-12T13:17:29.944Z,55.90
2018-08-12T13:19:58.359Z,56.10
2018-08-12T13:22:26.724Z,56.10
2018-08-12T13:24:55.098Z,56.10
2018-08-12T13:27:23.516Z,55.90
2018-08-12T13:29:51.861Z,55.50
2018-08-12T13:32:20.304Z,55.80
2018-08-12T13:34:48.640Z,56.50
2018-08-12T13:37:17.230Z,57.00
2018-08-12T13:39:45.611Z,56.80
2018-08-12T13:42:14.116Z,56.10
2018-08-12T13:44:42.482Z,56.10
2018-08-12T13:47:10.888Z,56.50
2018-08-12T13:49:39.296Z,56.60
2018-08-12T13:52:07.922Z,57.10
2018-08-12T13:54:42.920Z,56.60
2018-08-12T13:57:11.325Z,57.10
2018-08-12T13:59:39.704Z,57.30
2018-08-12T14:02:08.068Z,57.80
2018-08-12T14:04:36.413Z,57.60
2018-08-12T14:07:04.959Z,57.10
2018-08-12T14:09:33.248Z,57.80
2018-08-12T14:12:01.564Z,58.20
2018-08-12T14:14:29.956Z,58.00
2018-08-12T14:16:58.484Z,57.90
2018-08-12T14:19:26.879Z,56.80
2018-08-12T14:21:55.229Z,56.90
2018-08-12T14:24:23.690Z,56.80
2018-08-12T14:26:52.274Z,56.30
2018-08-12T14:29:20.640Z,56.20
2018-08-12T14:31:49.008Z,56.10
2018-08-12T14:34:17.444Z,55.80
2018-08-12T14:36:46.216Z,55.80
2018-08-12T14:39:14.637Z,56.60
2018-08-12T14:41:43.043Z,56.10
2018-08-12T14:44:11.433Z,56.00
2018-08-12T14:46:39.835Z,55.80
2018-08-12T14:49:08.226Z,56.30
2018-08-12T14:51:36.617Z,57.20
2018-08-12T14:54:04.988Z,58.50
2018-08-12T14:56:33.374Z,57.40
2018-08-12T14:59:01.824Z,57.90
2018-08-12T15:01:30.204Z,58.10
2018-08-12T15:03:58.624Z,58.60
2018-08-12T15:06:27.040Z,59.10
2018-08-12T15:08:55.440Z,58.90
2018-08-12T15:11:23.869Z,57.90
2018-08-12T15:13:52.270Z,58.20
2018-08-12T15:16:20.673Z,58.80
2018-08-12T15:18:49.001Z,59.10
2018-08-12T15:21:17.367Z,60.00
2018-08-12T15:23:45.972Z,60.00
2018-08-12T15:26:14.340Z,59.40
2018-08-12T15:28:42.677Z,58.90
2018-08-12T15:31:11.050Z,59.80
2018-08-12T15:33:39.564Z,59.80
2018-08-12T15:36:08.366Z,59.50
2018-08-12T15:38:36.765Z,59.90
2018-08-12T15:41:05.172Z,60.80
2018-08-12T15:43:33.668Z,60.70
2018-08-12T15:46:02.061Z,61.10
2018-08-12T15:48:30.815Z,61.60
2018-08-12T15:50:59.146Z,61.90
2018-08-12T15:53:27.599Z,62.20
2018-08-12T15:55:55.929Z,63.10
2018-08-12T15:58:24.385Z,63.90
2018-08-12T16:00:52.826Z,64.60
2018-08-12T16:03:21.152Z,64.40
2018-08-12T16:05:49.487Z,64.60
2018-08-12T16:08:17.872Z,63.70
2018-08-12T16:10:46.272Z,62.80
2018-08-12T16:13:14.612Z,62.20
2018-08-12T16:15:42.992Z,62.70
2018-08-12T16:18:11.511Z,62.20
2018-08-12T16:20:39.853Z,62.30
2018-08-12T16:23:08.285Z,61.20
2018-08-12T16:25:36.800Z,60.40
2018-08-12T16:28:05.213Z,60.60
2018-08-12T16:30:33.596Z,60.50
2018-08-12T16:33:02.010Z,61.20
2018-08-12T16:35:30.501Z,62.50
2018-08-12T16:37:58.896Z,63.20
2018-08-12T16:40:27.272Z,64.20
2018-08-12T16:42:55.641Z,64.10
2018-08-12T16:45:24.046Z,63.90
2018-08-12T16:47:52.375Z,62.50
2018-08-12T16:50:20.747Z,62.40
2018-08-12T16:52:49.188Z,62.20
2018-08-12T16:55:18.467Z,62.50
2018-08-12T16:57:48.042Z,61.60
2018-08-12T17:00:19.208Z,61.90
2018-08-12T17:02:47.820Z,63.60
2018-08-12T17:05:18.365Z,63.80
2018-08-12T17:07:46.776Z,63.20
2018-08-12T17:10:16.309Z,63.20
2018-08-12T17:12:44.729Z,63.70
2018-08-12T17:15:15.338Z,64.10
2018-08-12T17:17:43.708Z,63.30
2018-08-12T17:20:13.281Z,61.50
2018-08-12T17:22:42.518Z,62.80
2018-08-12T17:25:10.974Z,63.60
2018-08-12T17:27:39.408Z,64.20
2018-08-12T17:30:09.460Z,64.80
2018-08-12T17:32:37.975Z,65.10
2018-08-12T17:35:06.913Z,65.90
2018-08-12T17:37:35.577Z,65.60
2018-08-12T17:40:05.844Z,65.60
2018-08-12T17:42:34.320Z,66.10
2018-08-12T17:45:02.679Z,67.10
2018-08-12T17:47:31.178Z,66.60
2018-08-12T17:49:59.528Z,66.40
2018-08-12T17:52:27.908Z,66.70
2018-08-12T17:54:56.269Z,67.80
2018-08-12T17:57:24.659Z,68.00
2018-08-12T17:59:53.084Z,68.70
2018-08-12T18:02:21.504Z,68.70
2018-08-12T18:04:49.890Z,68.90
2018-08-12T18:07:18.284Z,68.90
2018-08-12T18:09:46.697Z,69.30
2018-08-12T18:12:15.055Z,69.10
2018-08-12T18:14:43.377Z,69.40
2018-08-12T18:17:11.794Z,69.80
2018-08-12T18:19:40.172Z,69.70
2018-08-12T18:22:08.567Z,69.00
2018-08-12T18:24:37.001Z,68.70
2018-08-12T18:27:05.644Z,69.40
2018-08-12T18:29:34.424Z,68.90
2018-08-12T18:32:02.925Z,69.00
2018-08-12T18:34:31.425Z,69.40
2018-08-12T18:36:59.868Z,69.40
2018-08-12T18:39:28.228Z,69.70
2018-08-12T18:41:56.652Z,69.80
2018-08-12T18:44:25.027Z,70.40
2018-08-12T18:46:53.464Z,70.40
2018-08-12T18:49:21.837Z,70.40
2018-08-12T18:51:50.184Z,70.80
2018-08-12T18:54:18.544Z,70.20
2018-08-12T18:56:46.904Z,70.50
2018-08-12T18:59:15.244Z,71.20
2018-08-12T19:01:43.680Z,71.80
2018-08-12T19:04:12.037Z,71.80
2018-08-12T19:06:40.464Z,72.10
2018-08-12T19:09:10.575Z,71.90
2018-08-12T19:11:39.037Z,71.60
2018-08-12T19:14:07.795Z,71.70
2018-08-12T19:16:36.156Z,71.70
2018-08-12T19:19:04.836Z,71.50
2018-08-12T19:21:33.188Z,71.30
2018-08-12T19:24:01.539Z,71.40
2018-08-12T19:26:30.048Z,71.30
2018-08-12T19:28:58.422Z,71.00
2018-08-12T19:31:26.884Z,71.80
2018-08-12T19:33:55.286Z,72.40
2018-08-12T19:36:24.000Z,72.20
2018-08-12T19:38:52.352Z,72.50
2018-08-12T19:41:21.039Z,72.70
2018-08-12T19:43:49.360Z,72.90
2018-08-12T19:46:17.936Z,73.40
2018-08-12T19:48:46.312Z,73.40
2018-08-12T19:51:14.705Z,73.20
2018-08-12T19:53:43.385Z,72.60
2018-08-12T19:56:11.809Z,72.20
2018-08-12T19:58:40.208Z,71.50
2018-08-12T20:01:08.642Z,72.00
2018-08-12T20:03:37.048Z,72.10
2018-08-12T20:06:05.424Z,72.00
2018-08-12T20:08:33.900Z,72.00
2018-08-12T20:11:02.284Z,72.60
2018-08-12T20:13:30.713Z,72.10
2018-08-12T20:15:59.137Z,71.90
2018-08-12T20:18:27.558Z,72.00
2018-08-12T20:20:55.900Z,72.30
2018-08-12T20:23:24.276Z,72.20
2018-08-12T20:25:52.616Z,72.10
2018-08-12T20:28:21.076Z,71.90
2018-08-12T20:30:49.568Z,71.60
2018-08-12T20:33:17.919Z,71.50
2018-08-12T20:35:46.288Z,71.50
2018-08-12T20:38:14.628Z,71.80
2018-08-12T20:40:42.980Z,71.90
2018-08-12T20:43:11.328Z,72.10
2018-08-12T20:45:39.711Z,72.30
2018-08-12T20:48:08.177Z,71.70
2018-08-12T20:50:36.488Z,71.40
2018-08-12T20:53:04.945Z,71.60
2018-08-12T20:55:33.365Z,71.60
2018-08-12T20:58:01.749Z,71.60
2018-08-12T21:00:30.139Z,71.50
2018-08-12T21:02:58.471Z,71.70
2018-08-12T21:05:26.848Z,72.20
2018-08-12T21:07:55.233Z,72.00
2018-08-12T21:10:23.601Z,71.80
2018-08-12T21:12:52.000Z,72.10
2018-08-12T21:15:20.358Z,72.10
2018-08-12T21:17:48.740Z,72.20
2018-08-12T21:20:17.135Z,72.40
2018-08-12T21:22:45.434Z,72.00
2018-08-12T21:25:13.908Z,72.00
2018-08-12T21:27:42.261Z,72.10
2018-08-12T21:30:10.631Z,72.10
2018-08-12T21:32:39.044Z,72.10
2018-08-12T21:35:07.557Z,72.10
2018-08-12T21:37:36.023Z,72.40
2018-08-12T21:40:04.914Z,72.20
2018-08-12T21:42:33.285Z,72.00
2018-08-12T21:45:01.664Z,72.50
2018-08-12T21:47:30.041Z,72.60
2018-08-12T21:49:58.420Z,72.50
2018-08-12T21:52:27.265Z,72.50
2018-08-12T21:54:55.648Z,72.70
2018-08-12T21:57:24.036Z,72.60
2018-08-12T21:59:52.457Z,72.60
2018-08-12T22:02:20.902Z,72.60
2018-08-12T22:04:49.221Z,72.50
2018-08-12T22:07:17.594Z,72.40
2018-08-12T22:09:45.969Z,72.60
2018-08-12T22:12:14.439Z,72.80
2018-08-12T22:14:42.921Z,73.20
2018-08-12T22:17:11.260Z,73.50
2018-08-12T22:19:40.382Z,73.70
2018-08-12T22:22:08.790Z,74.20
2018-08-12T22:24:37.325Z,74.60
2018-08-12T22:27:06.421Z,75.00
2018-08-12T22:29:35.203Z,74.90
2018-08-12T22:32:03.626Z,74.30
2018-08-12T22:34:32.011Z,74.40
2018-08-12T22:37:00.353Z,74.10
2018-08-12T22:39:28.736Z,73.70
2018-08-12T22:41:57.054Z,73.70
2018-08-12T22:44:25.412Z,73.30
2018-08-12T22:46:53.772Z,73.40
2018-08-12T22:49:22.093Z,73.70
2018-08-12T22:51:50.512Z,74.00
2018-08-12T22:54:18.844Z,74.00
2018-08-12T22:56:47.415Z,73.80
2018-08-12T22:59:15.816Z,74.50
2018-08-12T23:01:44.197Z,73.70
2018-08-12T23:04:12.577Z,74.10
2018-08-12T23:06:40.961Z,74.40
2018-08-12T23:09:10.031Z,74.60
2018-08-12T23:11:38.636Z,74.70
2018-08-12T23:14:07.154Z,74.80
2018-08-12T23:16:47.062Z,74.80
2018-08-12T23:19:15.388Z,74.70
2018-08-12T23:21:43.744Z,75.00
2018-08-12T23:24:12.083Z,75.00
2018-08-12T23:26:40.459Z,75.00
2018-08-12T23:29:08.821Z,75.30
2018-08-12T23:31:37.184Z,75.40
2018-08-12T23:34:05.592Z,75.60
2018-08-12T23:36:33.943Z,75.60
2018-08-12T23:39:02.296Z,75.80
2018-08-12T23:41:30.654Z,75.90
2018-08-12T23:43:58.981Z,76.20
2018-08-12T23:46:27.400Z,76.00
2018-08-12T23:48:55.807Z,76.30
2018-08-12T23:51:24.128Z,76.60
2018-08-12T23:53:52.504Z,76.90
2018-08-12T23:56:20.988Z,76.80
2018-08-12T23:58:49.392Z,76.70
